sensor_id;sensor_type;location;lat;lon;timestamp;P1;durP1;ratioP1;P2;durP2;ratioP2
32032;SDS011;31720;52.638;9.216;2023-10-31T00:01:31;4.00;;;1.30;;
32032;SDS011;31720;52.638;9.216;2023-10-31T00:04:32;2.70;;;1.60;;
32032;SDS011;31720;52.638;9.216;2023-10-31T00:07:33;2.33;;;1.50;;
32032;SDS011;31720;52.638;9.216;2023-10-31T00:10:35;4.60;;;2.15;;
32032;SDS011;31720;52.638;9.216;2023-10-31T00:13:37;2.97;;;1.90;;
32032;SDS011;31720;52.638;9.216;2023-10-31T00:16:39;3.53;;;1.98;;
32032;SDS011;31720;52.638;9.216;2023-10-31T00:19:41;2.60;;;1.75;;
32032;SDS011;31720;52.638;9.216;2023-10-31T00:22:42;2.45;;;1.98;;
32032;SDS011;31720;52.638;9.216;2023-10-31T00:25:43;3.80;;;2.17;;
32032;SDS011;31720;52.638;9.216;2023-10-31T00:28:46;14.18;;;2.40;;
32032;SDS011;31720;52.638;9.216;2023-10-31T00:31:47;4.88;;;2.03;;
32032;SDS011;31720;52.638;9.216;2023-10-31T00:34:49;3.53;;;2.30;;
32032;SDS011;31720;52.638;9.216;2023-10-31T00:37:50;9.52;;;2.92;;
32032;SDS011;31720;52.638;9.216;2023-10-31T00:40:52;4.25;;;2.00;;
32032;SDS011;31720;52.638;9.216;2023-10-31T00:43:54;5.68;;;2.35;;
32032;SDS011;31720;52.638;9.216;2023-10-31T00:46:56;7.13;;;2.33;;
32032;SDS011;31720;52.638;9.216;2023-10-31T00:49:57;4.47;;;2.30;;
32032;SDS011;31720;52.638;9.216;2023-10-31T00:52:59;7.40;;;2.88;;
32032;SDS011;31720;52.638;9.216;2023-10-31T00:56:01;4.13;;;2.10;;
32032;SDS011;31720;52.638;9.216;2023-10-31T00:59:04;8.45;;;2.50;;
32032;SDS011;31720;52.638;9.216;2023-10-31T01:02:05;4.20;;;2.13;;
32032;SDS011;31720;52.638;9.216;2023-10-31T01:05:07;4.10;;;2.60;;
32032;SDS011;31720;52.638;9.216;2023-10-31T01:08:08;3.00;;;2.13;;
32032;SDS011;31720;52.638;9.216;2023-10-31T01:11:10;5.93;;;2.40;;
32032;SDS011;31720;52.638;9.216;2023-10-31T01:14:13;4.95;;;2.45;;
32032;SDS011;31720;52.638;9.216;2023-10-31T01:17:14;5.50;;;2.35;;
32032;SDS011;31720;52.638;9.216;2023-10-31T01:20:15;6.05;;;2.20;;
32032;SDS011;31720;52.638;9.216;2023-10-31T01:23:17;6.05;;;2.30;;
32032;SDS011;31720;52.638;9.216;2023-10-31T01:26:18;3.95;;;2.35;;
32032;SDS011;31720;52.638;9.216;2023-10-31T01:29:21;4.05;;;2.35;;
32032;SDS011;31720;52.638;9.216;2023-10-31T01:32:22;6.57;;;2.65;;
32032;SDS011;31720;52.638;9.216;2023-10-31T01:35:24;4.05;;;2.38;;
32032;SDS011;31720;52.638;9.216;2023-10-31T01:38:25;4.43;;;2.13;;
32032;SDS011;31720;52.638;9.216;2023-10-31T01:41:27;4.97;;;2.80;;
32032;SDS011;31720;52.638;9.216;2023-10-31T01:44:29;7.10;;;2.75;;
32032;SDS011;31720;52.638;9.216;2023-10-31T01:47:31;4.07;;;2.30;;
32032;SDS011;31720;52.638;9.216;2023-10-31T01:50:32;3.13;;;1.98;;
32032;SDS011;31720;52.638;9.216;2023-10-31T01:53:34;3.40;;;1.88;;
32032;SDS011;31720;52.638;9.216;2023-10-31T01:56:36;4.15;;;2.20;;
32032;SDS011;31720;52.638;9.216;2023-10-31T01:59:40;4.53;;;2.22;;
32032;SDS011;31720;52.638;9.216;2023-10-31T02:02:41;5.70;;;2.42;;
32032;SDS011;31720;52.638;9.216;2023-10-31T02:05:43;4.88;;;2.92;;
32032;SDS011;31720;52.638;9.216;2023-10-31T02:08:44;7.07;;;2.83;;
32032;SDS011;31720;52.638;9.216;2023-10-31T02:11:48;6.05;;;2.42;;
32032;SDS011;31720;52.638;9.216;2023-10-31T02:14:50;5.05;;;2.75;;
32032;SDS011;31720;52.638;9.216;2023-10-31T02:17:52;6.03;;;3.00;;
32032;SDS011;31720;52.638;9.216;2023-10-31T02:20:53;3.30;;;2.55;;
32032;SDS011;31720;52.638;9.216;2023-10-31T02:23:57;3.97;;;2.53;;
32032;SDS011;31720;52.638;9.216;2023-10-31T02:26:59;4.25;;;2.70;;
32032;SDS011;31720;52.638;9.216;2023-10-31T02:30:01;3.75;;;2.47;;
32032;SDS011;31720;52.638;9.216;2023-10-31T02:33:02;3.97;;;2.58;;
32032;SDS011;31720;52.638;9.216;2023-10-31T02:36:04;4.93;;;2.83;;
32032;SDS011;31720;52.638;9.216;2023-10-31T02:39:07;5.07;;;2.70;;
32032;SDS011;31720;52.638;9.216;2023-10-31T02:42:08;4.00;;;2.53;;
32032;SDS011;31720;52.638;9.216;2023-10-31T02:45:10;4.93;;;3.13;;
32032;SDS011;31720;52.638;9.216;2023-10-31T02:48:12;3.28;;;2.20;;
32032;SDS011;31720;52.638;9.216;2023-10-31T02:51:13;7.53;;;3.08;;
32032;SDS011;31720;52.638;9.216;2023-10-31T02:54:16;3.45;;;2.45;;
32032;SDS011;31720;52.638;9.216;2023-10-31T02:57:17;2.72;;;2.05;;
32032;SDS011;31720;52.638;9.216;2023-10-31T03:00:19;3.60;;;2.33;;
32032;SDS011;31720;52.638;9.216;2023-10-31T03:03:20;4.32;;;2.40;;
32032;SDS011;31720;52.638;9.216;2023-10-31T03:06:22;6.68;;;2.40;;
32032;SDS011;31720;52.638;9.216;2023-10-31T03:09:24;6.78;;;2.15;;
32032;SDS011;31720;52.638;9.216;2023-10-31T03:12:26;5.13;;;2.60;;
32032;SDS011;31720;52.638;9.216;2023-10-31T03:15:28;5.57;;;2.90;;
32032;SDS011;31720;52.638;9.216;2023-10-31T03:18:30;4.22;;;2.25;;
32032;SDS011;31720;52.638;9.216;2023-10-31T03:21:31;5.47;;;2.28;;
32032;SDS011;31720;52.638;9.216;2023-10-31T03:24:34;3.60;;;2.35;;
32032;SDS011;31720;52.638;9.216;2023-10-31T03:27:35;3.83;;;2.40;;
32032;SDS011;31720;52.638;9.216;2023-10-31T03:30:37;4.40;;;2.53;;
32032;SDS011;31720;52.638;9.216;2023-10-31T03:33:38;4.47;;;3.13;;
32032;SDS011;31720;52.638;9.216;2023-10-31T03:36:40;4.40;;;2.72;;
32032;SDS011;31720;52.638;9.216;2023-10-31T03:39:43;5.25;;;3.05;;
32032;SDS011;31720;52.638;9.216;2023-10-31T03:42:44;4.10;;;2.42;;
32032;SDS011;31720;52.638;9.216;2023-10-31T03:45:45;4.47;;;2.67;;
32032;SDS011;31720;52.638;9.216;2023-10-31T03:48:47;4.85;;;3.25;;
32032;SDS011;31720;52.638;9.216;2023-10-31T03:51:49;6.95;;;3.97;;
32032;SDS011;31720;52.638;9.216;2023-10-31T03:54:52;7.63;;;4.90;;
32032;SDS011;31720;52.638;9.216;2023-10-31T03:57:53;9.13;;;6.10;;
32032;SDS011;31720;52.638;9.216;2023-10-31T04:00:54;10.13;;;6.00;;
32032;SDS011;31720;52.638;9.216;2023-10-31T04:03:56;8.90;;;5.97;;
32032;SDS011;31720;52.638;9.216;2023-10-31T04:06:57;12.00;;;6.72;;
32032;SDS011;31720;52.638;9.216;2023-10-31T04:10:00;11.82;;;6.50;;
32032;SDS011;31720;52.638;9.216;2023-10-31T04:13:01;10.13;;;6.35;;
32032;SDS011;31720;52.638;9.216;2023-10-31T04:16:03;7.88;;;5.40;;
32032;SDS011;31720;52.638;9.216;2023-10-31T04:19:05;7.00;;;4.72;;
32032;SDS011;31720;52.638;9.216;2023-10-31T04:22:07;6.28;;;3.78;;
32032;SDS011;31720;52.638;9.216;2023-10-31T04:25:09;5.82;;;3.60;;
32032;SDS011;31720;52.638;9.216;2023-10-31T04:28:11;5.43;;;2.42;;
32032;SDS011;31720;52.638;9.216;2023-10-31T04:31:13;3.58;;;2.20;;
32032;SDS011;31720;52.638;9.216;2023-10-31T04:34:14;3.08;;;2.10;;
32032;SDS011;31720;52.638;9.216;2023-10-31T04:37:16;2.42;;;1.63;;
32032;SDS011;31720;52.638;9.216;2023-10-31T04:40:18;2.50;;;1.63;;
32032;SDS011;31720;52.638;9.216;2023-10-31T04:43:20;2.63;;;1.52;;
32032;SDS011;31720;52.638;9.216;2023-10-31T04:46:21;2.25;;;1.30;;
32032;SDS011;31720;52.638;9.216;2023-10-31T04:49:23;1.00;;;0.60;;
32032;SDS011;31720;52.638;9.216;2023-10-31T04:52:24;0.88;;;0.60;;
32032;SDS011;31720;52.638;9.216;2023-10-31T04:55:27;0.50;;;0.50;;
32032;SDS011;31720;52.638;9.216;2023-10-31T04:58:28;0.60;;;0.60;;
32032;SDS011;31720;52.638;9.216;2023-10-31T05:01:30;0.52;;;0.40;;
32032;SDS011;31720;52.638;9.216;2023-10-31T05:04:31;0.45;;;0.43;;
32032;SDS011;31720;52.638;9.216;2023-10-31T05:07:32;0.77;;;0.30;;
32032;SDS011;31720;52.638;9.216;2023-10-31T05:10:35;0.32;;;0.30;;
32032;SDS011;31720;52.638;9.216;2023-10-31T05:13:37;0.20;;;0.20;;
32032;SDS011;31720;52.638;9.216;2023-10-31T05:16:40;0.20;;;0.20;;
32032;SDS011;31720;52.638;9.216;2023-10-31T05:19:42;0.20;;;0.20;;
32032;SDS011;31720;52.638;9.216;2023-10-31T05:22:43;0.10;;;0.10;;
32032;SDS011;31720;52.638;9.216;2023-10-31T05:25:46;0.15;;;0.10;;
32032;SDS011;31720;52.638;9.216;2023-10-31T05:28:47;0.20;;;0.20;;
32032;SDS011;31720;52.638;9.216;2023-10-31T05:31:49;0.22;;;0.22;;
32032;SDS011;31720;52.638;9.216;2023-10-31T05:34:50;3.35;;;0.10;;
32032;SDS011;31720;52.638;9.216;2023-10-31T05:37:52;0.17;;;0.17;;
32032;SDS011;31720;52.638;9.216;2023-10-31T05:40:54;0.10;;;0.10;;
32032;SDS011;31720;52.638;9.216;2023-10-31T05:43:56;0.10;;;0.10;;
32032;SDS011;31720;52.638;9.216;2023-10-31T05:46:57;1.17;;;0.15;;
32032;SDS011;31720;52.638;9.216;2023-10-31T05:49:59;0.10;;;0.10;;
32032;SDS011;31720;52.638;9.216;2023-10-31T05:53:00;0.10;;;0.10;;
32032;SDS011;31720;52.638;9.216;2023-10-31T05:56:04;0.10;;;0.10;;
32032;SDS011;31720;52.638;9.216;2023-10-31T05:59:07;0.13;;;0.13;;
32032;SDS011;31720;52.638;9.216;2023-10-31T06:02:08;0.20;;;0.20;;
32032;SDS011;31720;52.638;9.216;2023-10-31T06:05:10;2.60;;;0.30;;
32032;SDS011;31720;52.638;9.216;2023-10-31T06:08:11;1.65;;;0.40;;
32032;SDS011;31720;52.638;9.216;2023-10-31T06:11:14;0.20;;;0.20;;
32032;SDS011;31720;52.638;9.216;2023-10-31T06:14:16;0.20;;;0.20;;
32032;SDS011;31720;52.638;9.216;2023-10-31T06:17:17;0.95;;;0.47;;
32032;SDS011;31720;52.638;9.216;2023-10-31T06:20:18;0.65;;;0.50;;
32032;SDS011;31720;52.638;9.216;2023-10-31T06:23:20;1.83;;;0.40;;
32032;SDS011;31720;52.638;9.216;2023-10-31T06:26:23;0.80;;;0.70;;
32032;SDS011;31720;52.638;9.216;2023-10-31T06:29:24;1.25;;;0.52;;
32032;SDS011;31720;52.638;9.216;2023-10-31T06:32:25;1.00;;;0.70;;
32032;SDS011;31720;52.638;9.216;2023-10-31T06:35:27;2.33;;;0.73;;
32032;SDS011;31720;52.638;9.216;2023-10-31T06:38:29;3.97;;;0.52;;
32032;SDS011;31720;52.638;9.216;2023-10-31T06:41:32;0.52;;;0.52;;
32032;SDS011;31720;52.638;9.216;2023-10-31T06:44:34;2.33;;;0.77;;
32032;SDS011;31720;52.638;9.216;2023-10-31T06:47:35;0.80;;;0.57;;
32032;SDS011;31720;52.638;9.216;2023-10-31T06:50:36;1.35;;;0.77;;
32032;SDS011;31720;52.638;9.216;2023-10-31T06:53:38;1.88;;;0.65;;
32032;SDS011;31720;52.638;9.216;2023-10-31T06:56:41;1.17;;;0.82;;
32032;SDS011;31720;52.638;9.216;2023-10-31T06:59:42;2.38;;;0.90;;
32032;SDS011;31720;52.638;9.216;2023-10-31T07:02:43;1.58;;;0.85;;
32032;SDS011;31720;52.638;9.216;2023-10-31T07:05:45;4.28;;;0.73;;
32032;SDS011;31720;52.638;9.216;2023-10-31T07:08:46;2.90;;;1.27;;
32032;SDS011;31720;52.638;9.216;2023-10-31T07:11:49;1.52;;;1.10;;
32032;SDS011;31720;52.638;9.216;2023-10-31T07:14:50;2.60;;;1.40;;
32032;SDS011;31720;52.638;9.216;2023-10-31T07:17:52;5.78;;;1.38;;
32032;SDS011;31720;52.638;9.216;2023-10-31T07:20:53;5.90;;;1.80;;
32032;SDS011;31720;52.638;9.216;2023-10-31T07:23:55;4.30;;;1.67;;
32032;SDS011;31720;52.638;9.216;2023-10-31T07:26:58;3.00;;;1.55;;
32032;SDS011;31720;52.638;9.216;2023-10-31T07:29:59;5.70;;;1.88;;
32032;SDS011;31720;52.638;9.216;2023-10-31T07:33:01;5.30;;;2.22;;
32032;SDS011;31720;52.638;9.216;2023-10-31T07:36:03;3.17;;;1.75;;
32032;SDS011;31720;52.638;9.216;2023-10-31T07:39:05;2.90;;;1.85;;
32032;SDS011;31720;52.638;9.216;2023-10-31T07:42:08;4.75;;;1.85;;
32032;SDS011;31720;52.638;9.216;2023-10-31T07:45:09;5.07;;;1.80;;
32032;SDS011;31720;52.638;9.216;2023-10-31T07:48:11;4.80;;;1.80;;
32032;SDS011;31720;52.638;9.216;2023-10-31T07:51:13;2.33;;;1.50;;
32032;SDS011;31720;52.638;9.216;2023-10-31T07:54:14;8.23;;;1.50;;
32032;SDS011;31720;52.638;9.216;2023-10-31T07:57:18;1.50;;;1.23;;
32032;SDS011;31720;52.638;9.216;2023-10-31T08:00:19;3.15;;;1.83;;
32032;SDS011;31720;52.638;9.216;2023-10-31T08:03:21;3.35;;;1.80;;
32032;SDS011;31720;52.638;9.216;2023-10-31T08:06:23;2.60;;;1.55;;
32032;SDS011;31720;52.638;9.216;2023-10-31T08:09:24;2.90;;;1.70;;
32032;SDS011;31720;52.638;9.216;2023-10-31T08:12:27;3.38;;;1.83;;
32032;SDS011;31720;52.638;9.216;2023-10-31T08:15:28;2.10;;;1.35;;
32032;SDS011;31720;52.638;9.216;2023-10-31T08:18:30;3.75;;;1.92;;
32032;SDS011;31720;52.638;9.216;2023-10-31T08:21:31;3.83;;;1.50;;
32032;SDS011;31720;52.638;9.216;2023-10-31T08:24:35;3.50;;;1.98;;
32032;SDS011;31720;52.638;9.216;2023-10-31T08:27:38;3.20;;;1.77;;
32032;SDS011;31720;52.638;9.216;2023-10-31T08:30:39;2.92;;;1.92;;
32032;SDS011;31720;52.638;9.216;2023-10-31T08:33:40;2.63;;;1.83;;
32032;SDS011;31720;52.638;9.216;2023-10-31T08:36:42;2.83;;;1.58;;
32032;SDS011;31720;52.638;9.216;2023-10-31T08:39:43;2.83;;;1.60;;
32032;SDS011;31720;52.638;9.216;2023-10-31T08:42:46;2.80;;;1.75;;
32032;SDS011;31720;52.638;9.216;2023-10-31T08:45:47;4.07;;;1.80;;
32032;SDS011;31720;52.638;9.216;2023-10-31T08:48:49;2.97;;;2.17;;
32032;SDS011;31720;52.638;9.216;2023-10-31T08:51:50;3.65;;;2.13;;
32032;SDS011;31720;52.638;9.216;2023-10-31T08:54:52;4.60;;;2.58;;
32032;SDS011;31720;52.638;9.216;2023-10-31T08:57:54;17.67;;;8.02;;
32032;SDS011;31720;52.638;9.216;2023-10-31T09:00:56;32.67;;;15.00;;
32032;SDS011;31720;52.638;9.216;2023-10-31T09:03:57;23.23;;;9.95;;
32032;SDS011;31720;52.638;9.216;2023-10-31T09:06:59;21.58;;;9.63;;
32032;SDS011;31720;52.638;9.216;2023-10-31T09:10:00;12.30;;;4.15;;
32032;SDS011;31720;52.638;9.216;2023-10-31T09:13:04;9.73;;;4.80;;
32032;SDS011;31720;52.638;9.216;2023-10-31T09:16:06;5.20;;;3.22;;
32032;SDS011;31720;52.638;9.216;2023-10-31T09:19:08;7.20;;;3.90;;
32032;SDS011;31720;52.638;9.216;2023-10-31T09:22:10;5.20;;;3.55;;
32032;SDS011;31720;52.638;9.216;2023-10-31T09:25:11;4.68;;;2.97;;
32032;SDS011;31720;52.638;9.216;2023-10-31T09:28:14;3.85;;;2.65;;
32032;SDS011;31720;52.638;9.216;2023-10-31T09:31:15;6.97;;;3.45;;
32032;SDS011;31720;52.638;9.216;2023-10-31T09:34:17;6.70;;;3.78;;
32032;SDS011;31720;52.638;9.216;2023-10-31T09:37:19;5.63;;;2.97;;
32032;SDS011;31720;52.638;9.216;2023-10-31T09:40:20;8.90;;;3.45;;
32032;SDS011;31720;52.638;9.216;2023-10-31T09:43:24;2.92;;;1.80;;
32032;SDS011;31720;52.638;9.216;2023-10-31T09:46:25;4.47;;;2.38;;
32032;SDS011;31720;52.638;9.216;2023-10-31T09:49:29;3.58;;;1.80;;
32032;SDS011;31720;52.638;9.216;2023-10-31T09:52:30;6.85;;;3.08;;
32032;SDS011;31720;52.638;9.216;2023-10-31T09:55:33;2.95;;;1.77;;
32032;SDS011;31720;52.638;9.216;2023-10-31T09:58:36;5.65;;;2.67;;
32032;SDS011;31720;52.638;9.216;2023-10-31T10:01:39;6.93;;;3.35;;
32032;SDS011;31720;52.638;9.216;2023-10-31T10:04:42;4.10;;;2.17;;
32032;SDS011;31720;52.638;9.216;2023-10-31T10:07:43;4.80;;;2.45;;
32032;SDS011;31720;52.638;9.216;2023-10-31T10:10:46;2.17;;;1.60;;
32032;SDS011;31720;52.638;9.216;2023-10-31T10:13:52;5.60;;;1.60;;
32032;SDS011;31720;52.638;9.216;2023-10-31T10:16:53;6.32;;;1.92;;
32032;SDS011;31720;52.638;9.216;2023-10-31T10:20:04;2.60;;;1.33;;
32032;SDS011;31720;52.638;9.216;2023-10-31T10:23:08;3.25;;;2.05;;
32032;SDS011;31720;52.638;9.216;2023-10-31T10:26:09;1.55;;;1.35;;
32032;SDS011;31720;52.638;9.216;2023-10-31T10:29:12;1.88;;;1.50;;
32032;SDS011;31720;52.638;9.216;2023-10-31T10:32:13;4.82;;;1.60;;
32032;SDS011;31720;52.638;9.216;2023-10-31T10:35:15;3.90;;;1.77;;
32032;SDS011;31720;52.638;9.216;2023-10-31T10:38:18;2.00;;;1.17;;
32032;SDS011;31720;52.638;9.216;2023-10-31T10:41:20;2.22;;;1.40;;
32032;SDS011;31720;52.638;9.216;2023-10-31T10:44:26;2.75;;;1.90;;
32032;SDS011;31720;52.638;9.216;2023-10-31T10:47:33;4.75;;;1.42;;
32032;SDS011;31720;52.638;9.216;2023-10-31T10:50:38;2.25;;;1.60;;
32032;SDS011;31720;52.638;9.216;2023-10-31T10:53:44;2.13;;;1.23;;
32032;SDS011;31720;52.638;9.216;2023-10-31T10:56:53;1.65;;;1.15;;
32032;SDS011;31720;52.638;9.216;2023-10-31T11:00:03;1.05;;;0.90;;
32032;SDS011;31720;52.638;9.216;2023-10-31T11:03:08;3.10;;;1.13;;
32032;SDS011;31720;52.638;9.216;2023-10-31T11:06:10;2.15;;;1.02;;
32032;SDS011;31720;52.638;9.216;2023-10-31T11:09:13;1.67;;;0.88;;
32032;SDS011;31720;52.638;9.216;2023-10-31T11:12:15;1.48;;;0.95;;
32032;SDS011;31720;52.638;9.216;2023-10-31T11:15:19;1.60;;;1.05;;
32032;SDS011;31720;52.638;9.216;2023-10-31T11:18:21;1.08;;;0.90;;
32032;SDS011;31720;52.638;9.216;2023-10-31T11:21:23;1.73;;;0.93;;
32032;SDS011;31720;52.638;9.216;2023-10-31T11:24:26;1.50;;;0.90;;
32032;SDS011;31720;52.638;9.216;2023-10-31T11:27:27;2.03;;;0.80;;
32032;SDS011;31720;52.638;9.216;2023-10-31T11:30:33;1.73;;;1.45;;
32032;SDS011;31720;52.638;9.216;2023-10-31T11:33:35;2.63;;;1.40;;
32032;SDS011;31720;52.638;9.216;2023-10-31T11:36:40;3.45;;;0.70;;
32032;SDS011;31720;52.638;9.216;2023-10-31T11:39:41;0.80;;;0.73;;
32032;SDS011;31720;52.638;9.216;2023-10-31T11:42:43;1.95;;;1.20;;
32032;SDS011;31720;52.638;9.216;2023-10-31T11:45:49;1.85;;;1.25;;
32032;SDS011;31720;52.638;9.216;2023-10-31T11:48:51;4.25;;;1.10;;
32032;SDS011;31720;52.638;9.216;2023-10-31T11:51:54;1.52;;;0.98;;
32032;SDS011;31720;52.638;9.216;2023-10-31T11:54:56;2.10;;;0.80;;
32032;SDS011;31720;52.638;9.216;2023-10-31T11:57:57;3.03;;;0.80;;
32032;SDS011;31720;52.638;9.216;2023-10-31T12:01:02;2.88;;;0.93;;
32032;SDS011;31720;52.638;9.216;2023-10-31T12:04:05;0.82;;;0.70;;
32032;SDS011;31720;52.638;9.216;2023-10-31T12:07:06;1.98;;;1.10;;
32032;SDS011;31720;52.638;9.216;2023-10-31T12:10:08;1.52;;;1.00;;
32032;SDS011;31720;52.638;9.216;2023-10-31T12:13:12;2.08;;;1.25;;
32032;SDS011;31720;52.638;9.216;2023-10-31T12:16:15;1.33;;;0.98;;
32032;SDS011;31720;52.638;9.216;2023-10-31T12:19:17;0.70;;;0.70;;
32032;SDS011;31720;52.638;9.216;2023-10-31T12:22:22;1.23;;;0.80;;
32032;SDS011;31720;52.638;9.216;2023-10-31T12:25:24;8.18;;;1.27;;
32032;SDS011;31720;52.638;9.216;2023-10-31T12:28:26;2.08;;;0.80;;
32032;SDS011;31720;52.638;9.216;2023-10-31T12:31:29;1.42;;;0.65;;
32032;SDS011;31720;52.638;9.216;2023-10-31T12:34:31;4.93;;;1.58;;
32032;SDS011;31720;52.638;9.216;2023-10-31T12:37:34;2.97;;;1.13;;
32032;SDS011;31720;52.638;9.216;2023-10-31T12:40:36;2.03;;;0.82;;
32032;SDS011;31720;52.638;9.216;2023-10-31T12:43:38;2.03;;;0.80;;
32032;SDS011;31720;52.638;9.216;2023-10-31T12:46:41;0.80;;;0.57;;
32032;SDS011;31720;52.638;9.216;2023-10-31T12:49:42;3.10;;;0.50;;
32032;SDS011;31720;52.638;9.216;2023-10-31T12:52:47;0.93;;;0.65;;
32032;SDS011;31720;52.638;9.216;2023-10-31T12:55:49;1.02;;;0.80;;
32032;SDS011;31720;52.638;9.216;2023-10-31T12:58:56;0.60;;;0.60;;
32032;SDS011;31720;52.638;9.216;2023-10-31T13:02:00;4.90;;;1.45;;
32032;SDS011;31720;52.638;9.216;2023-10-31T13:05:09;1.13;;;0.73;;
32032;SDS011;31720;52.638;9.216;2023-10-31T13:08:13;2.03;;;0.60;;
32032;SDS011;31720;52.638;9.216;2023-10-31T13:11:15;0.35;;;0.35;;
32032;SDS011;31720;52.638;9.216;2023-10-31T13:14:17;3.50;;;0.68;;
32032;SDS011;31720;52.638;9.216;2023-10-31T13:17:20;0.47;;;0.47;;
32032;SDS011;31720;52.638;9.216;2023-10-31T13:20:21;0.57;;;0.40;;
32032;SDS011;31720;52.638;9.216;2023-10-31T13:23:23;1.55;;;0.45;;
32032;SDS011;31720;52.638;9.216;2023-10-31T13:26:24;2.67;;;0.77;;
32032;SDS011;31720;52.638;9.216;2023-10-31T13:29:25;2.22;;;0.80;;
32032;SDS011;31720;52.638;9.216;2023-10-31T13:32:28;0.50;;;0.50;;
32032;SDS011;31720;52.638;9.216;2023-10-31T13:35:30;0.57;;;0.52;;
32032;SDS011;31720;52.638;9.216;2023-10-31T13:38:32;2.75;;;0.75;;
32032;SDS011;31720;52.638;9.216;2023-10-31T13:41:35;2.20;;;0.60;;
32032;SDS011;31720;52.638;9.216;2023-10-31T13:44:37;0.45;;;0.43;;
32032;SDS011;31720;52.638;9.216;2023-10-31T13:47:40;0.75;;;0.68;;
32032;SDS011;31720;52.638;9.216;2023-10-31T13:50:41;1.40;;;0.60;;
32032;SDS011;31720;52.638;9.216;2023-10-31T13:53:43;0.43;;;0.43;;
32032;SDS011;31720;52.638;9.216;2023-10-31T13:56:45;0.40;;;0.40;;
32032;SDS011;31720;52.638;9.216;2023-10-31T13:59:46;1.35;;;0.43;;
32032;SDS011;31720;52.638;9.216;2023-10-31T14:02:49;2.95;;;0.50;;
32032;SDS011;31720;52.638;9.216;2023-10-31T14:05:50;0.40;;;0.40;;
32032;SDS011;31720;52.638;9.216;2023-10-31T14:08:52;0.40;;;0.40;;
32032;SDS011;31720;52.638;9.216;2023-10-31T14:11:53;0.60;;;0.50;;
32032;SDS011;31720;52.638;9.216;2023-10-31T14:14:54;1.40;;;1.00;;
32032;SDS011;31720;52.638;9.216;2023-10-31T14:17:57;0.60;;;0.60;;
32032;SDS011;31720;52.638;9.216;2023-10-31T14:20:58;0.93;;;0.43;;
32032;SDS011;31720;52.638;9.216;2023-10-31T14:24:00;2.97;;;0.50;;
32032;SDS011;31720;52.638;9.216;2023-10-31T14:27:03;0.70;;;0.52;;
32032;SDS011;31720;52.638;9.216;2023-10-31T14:30:05;2.05;;;0.70;;
32032;SDS011;31720;52.638;9.216;2023-10-31T14:33:09;1.95;;;0.60;;
32032;SDS011;31720;52.638;9.216;2023-10-31T14:36:10;2.88;;;0.90;;
32032;SDS011;31720;52.638;9.216;2023-10-31T14:39:13;0.90;;;0.70;;
32032;SDS011;31720;52.638;9.216;2023-10-31T14:42:14;0.57;;;0.47;;
32032;SDS011;31720;52.638;9.216;2023-10-31T14:45:16;1.83;;;0.60;;
32032;SDS011;31720;52.638;9.216;2023-10-31T14:48:18;0.70;;;0.45;;
32032;SDS011;31720;52.638;9.216;2023-10-31T14:51:20;1.45;;;0.85;;
32032;SDS011;31720;52.638;9.216;2023-10-31T14:54:22;2.20;;;0.90;;
32032;SDS011;31720;52.638;9.216;2023-10-31T14:57:25;0.30;;;0.30;;
32032;SDS011;31720;52.638;9.216;2023-10-31T15:00:26;2.40;;;0.50;;
32032;SDS011;31720;52.638;9.216;2023-10-31T15:03:29;0.35;;;0.30;;
32032;SDS011;31720;52.638;9.216;2023-10-31T15:06:30;0.65;;;0.30;;
32032;SDS011;31720;52.638;9.216;2023-10-31T15:09:32;0.40;;;0.40;;
32032;SDS011;31720;52.638;9.216;2023-10-31T15:12:33;0.45;;;0.30;;
32032;SDS011;31720;52.638;9.216;2023-10-31T15:15:34;1.67;;;0.47;;
32032;SDS011;31720;52.638;9.216;2023-10-31T15:18:37;2.40;;;0.50;;
32032;SDS011;31720;52.638;9.216;2023-10-31T15:21:38;1.45;;;0.50;;
32032;SDS011;31720;52.638;9.216;2023-10-31T15:24:40;0.63;;;0.30;;
32032;SDS011;31720;52.638;9.216;2023-10-31T15:27:42;0.77;;;0.25;;
32032;SDS011;31720;52.638;9.216;2023-10-31T15:30:43;0.20;;;0.20;;
32032;SDS011;31720;52.638;9.216;2023-10-31T15:33:46;0.65;;;0.30;;
32032;SDS011;31720;52.638;9.216;2023-10-31T15:36:48;1.15;;;0.40;;
32032;SDS011;31720;52.638;9.216;2023-10-31T15:39:49;0.90;;;0.45;;
32032;SDS011;31720;52.638;9.216;2023-10-31T15:42:51;0.30;;;0.30;;
32032;SDS011;31720;52.638;9.216;2023-10-31T15:45:53;1.13;;;0.40;;
32032;SDS011;31720;52.638;9.216;2023-10-31T15:48:55;2.03;;;0.47;;
32032;SDS011;31720;52.638;9.216;2023-10-31T15:51:57;0.40;;;0.40;;
32032;SDS011;31720;52.638;9.216;2023-10-31T15:54:58;0.50;;;0.40;;
32032;SDS011;31720;52.638;9.216;2023-10-31T15:57:59;0.28;;;0.22;;
32032;SDS011;31720;52.638;9.216;2023-10-31T16:01:01;0.80;;;0.45;;
32032;SDS011;31720;52.638;9.216;2023-10-31T16:04:04;1.33;;;0.40;;
32032;SDS011;31720;52.638;9.216;2023-10-31T16:07:06;0.22;;;0.17;;
32032;SDS011;31720;52.638;9.216;2023-10-31T16:10:09;1.80;;;0.90;;
32032;SDS011;31720;52.638;9.216;2023-10-31T16:13:11;0.30;;;0.28;;
32032;SDS011;31720;52.638;9.216;2023-10-31T16:16:12;4.22;;;0.73;;
32032;SDS011;31720;52.638;9.216;2023-10-31T16:19:15;5.97;;;0.85;;
32032;SDS011;31720;52.638;9.216;2023-10-31T16:22:16;0.45;;;0.40;;
32032;SDS011;31720;52.638;9.216;2023-10-31T16:25:18;4.50;;;0.57;;
32032;SDS011;31720;52.638;9.216;2023-10-31T16:28:20;0.95;;;0.68;;
32032;SDS011;31720;52.638;9.216;2023-10-31T16:31:21;1.40;;;0.80;;
32032;SDS011;31720;52.638;9.216;2023-10-31T16:34:26;6.18;;;0.80;;
32032;SDS011;31720;52.638;9.216;2023-10-31T16:37:27;2.70;;;0.88;;
32032;SDS011;31720;52.638;9.216;2023-10-31T16:40:29;1.33;;;0.90;;
32032;SDS011;31720;52.638;9.216;2023-10-31T16:43:30;2.65;;;0.80;;
32032;SDS011;31720;52.638;9.216;2023-10-31T16:46:32;1.55;;;0.65;;
32032;SDS011;31720;52.638;9.216;2023-10-31T16:49:35;1.77;;;0.80;;
32032;SDS011;31720;52.638;9.216;2023-10-31T16:52:37;2.55;;;0.80;;
32032;SDS011;31720;52.638;9.216;2023-10-31T16:55:39;1.27;;;0.85;;
32032;SDS011;31720;52.638;9.216;2023-10-31T16:58:40;2.15;;;0.82;;
32032;SDS011;31720;52.638;9.216;2023-10-31T17:01:42;1.75;;;0.80;;
32032;SDS011;31720;52.638;9.216;2023-10-31T17:04:45;4.38;;;1.58;;
32032;SDS011;31720;52.638;9.216;2023-10-31T17:07:46;2.13;;;1.08;;
32032;SDS011;31720;52.638;9.216;2023-10-31T17:10:48;3.38;;;0.82;;
32032;SDS011;31720;52.638;9.216;2023-10-31T17:13:49;15.88;;;5.43;;
32032;SDS011;31720;52.638;9.216;2023-10-31T17:16:51;4.15;;;1.30;;
32032;SDS011;31720;52.638;9.216;2023-10-31T17:19:53;9.50;;;3.58;;
32032;SDS011;31720;52.638;9.216;2023-10-31T17:22:55;10.95;;;3.65;;
32032;SDS011;31720;52.638;9.216;2023-10-31T17:25:57;17.08;;;5.30;;
32032;SDS011;31720;52.638;9.216;2023-10-31T17:28:58;7.13;;;2.90;;
32032;SDS011;31720;52.638;9.216;2023-10-31T17:32:00;2.47;;;1.20;;
32032;SDS011;31720;52.638;9.216;2023-10-31T17:35:03;2.33;;;0.80;;
32032;SDS011;31720;52.638;9.216;2023-10-31T17:38:05;0.95;;;0.50;;
32032;SDS011;31720;52.638;9.216;2023-10-31T17:41:06;2.88;;;0.47;;
32032;SDS011;31720;52.638;9.216;2023-10-31T17:44:08;0.73;;;0.38;;
32032;SDS011;31720;52.638;9.216;2023-10-31T17:47:09;3.30;;;0.88;;
32032;SDS011;31720;52.638;9.216;2023-10-31T17:50:12;0.45;;;0.32;;
32032;SDS011;31720;52.638;9.216;2023-10-31T17:53:13;2.85;;;0.82;;
32032;SDS011;31720;52.638;9.216;2023-10-31T17:56:16;0.43;;;0.38;;
32032;SDS011;31720;52.638;9.216;2023-10-31T17:59:17;0.80;;;0.60;;
32032;SDS011;31720;52.638;9.216;2023-10-31T18:02:18;1.17;;;0.50;;
32032;SDS011;31720;52.638;9.216;2023-10-31T18:05:21;1.25;;;0.50;;
32032;SDS011;31720;52.638;9.216;2023-10-31T18:08:23;1.00;;;0.80;;
32032;SDS011;31720;52.638;9.216;2023-10-31T18:11:24;1.48;;;0.93;;
32032;SDS011;31720;52.638;9.216;2023-10-31T18:14:26;1.48;;;0.93;;
32032;SDS011;31720;52.638;9.216;2023-10-31T18:17:27;1.15;;;0.68;;